Time;durP1;ratioP1;P1;durP2;ratioP2;P2;SDS_P1;SDS_P2;PMS_P1;PMS_P2;Temp;Humidity;BMP_temperature;BMP_pressure;BME280_temperature;BME280_humidity;BME280_pressure;Samples;Min_cycle;Max_cycle;Signal;HPM_P1;HPM_P2
2022/01/18 00:00:00;;;;;;;3.47;2.50;;;;;;;0.78;100.00;98620.91;4997581;28;20206;-56
2022/01/18 00:02:29;;;;;;;2.90;2.70;;;;;;;0.75;100.00;98621.06;4998711;28;20260;-57
2022/01/18 00:04:57;;;;;;;3.20;2.90;;;;;;;0.76;100.00;98620.13;4999490;28;20726;-57
2022/01/18 00:07:25;;;;;;;2.90;2.70;;;;;;;0.61;100.00;98621.00;4996647;28;20216;-62
2022/01/18 00:09:53;;;;;;;3.07;2.80;;;;;;;0.65;100.00;98630.34;4999311;28;20214;-62
2022/01/18 00:12:55;;;;;;;3.50;3.20;;;;;;;0.38;100.00;98630.94;4996472;28;20951;-59
2022/01/18 00:15:39;;;;;;;3.30;3.00;;;;;;;0.63;100.00;98651.28;4998378;28;20229;-56
2022/01/18 00:18:11;;;;;;;3.17;2.97;;;;;;;0.64;100.00;98647.75;4999834;28;20263;-59
2022/01/18 00:20:59;;;;;;;4.00;3.60;;;;;;;0.49;100.00;98640.78;5000482;28;20587;-60
2022/01/18 00:23:48;;;;;;;4.70;3.17;;;;;;;0.52;100.00;98651.03;4992538;28;20197;-58
2022/01/18 00:26:17;;;;;;;4.63;3.90;;;;;;;0.50;100.00;98647.69;4995827;28;20235;-57
2022/01/18 00:28:52;;;;;;;4.07;3.73;;;;;;;0.36;100.00;98645.81;4993374;28;20667;-61
2022/01/18 00:31:48;;;;;;;3.20;2.97;;;;;;;0.43;100.00;98658.47;4996533;28;20295;-60
2022/01/18 00:34:59;;;;;;;3.17;2.87;;;;;;;0.42;100.00;98666.34;4996457;28;20329;-60
2022/01/18 00:37:36;;;;;;;3.77;3.47;;;;;;;0.38;100.00;98673.50;4997901;28;20205;-62
2022/01/18 00:40:07;;;;;;;3.77;3.57;;;;;;;0.23;100.00;98669.97;4992822;28;20557;-57
2022/01/18 00:42:37;;;;;;;4.77;4.20;;;;;;;0.27;100.00;98665.41;4998504;28;20256;-58
2022/01/18 00:45:12;;;;;;;3.83;3.53;;;;;;;0.16;100.00;98670.34;4998132;28;20261;-57
2022/01/18 00:47:42;;;;;;;3.83;3.53;;;;;;;0.28;100.00;98675.75;5003151;28;20225;-62
2022/01/18 00:50:11;;;;;;;4.63;4.10;;;;;;;0.38;100.00;98680.47;5000986;28;20201;-60
2022/01/18 00:52:43;;;;;;;5.90;5.07;;;;;;;0.37;100.00;98679.63;4998841;28;20201;-59
2022/01/18 00:55:13;;;;;;;4.60;4.23;;;;;;;0.47;100.00;98689.59;5003589;28;20253;-57
2022/01/18 00:57:42;;;;;;;5.03;4.63;;;;;;;0.51;100.00;98699.75;5001997;28;20253;-61
2022/01/18 01:00:11;;;;;;;5.30;4.37;;;;;;;0.57;100.00;98688.16;4999465;28;20217;-60
2022/01/18 01:02:39;;;;;;;5.50;5.00;;;;;;;0.46;100.00;98693.13;5000895;28;20352;-61
2022/01/18 01:05:08;;;;;;;5.50;4.07;;;;;;;0.48;100.00;98686.06;5000782;28;20638;-61
2022/01/18 01:07:37;;;;;;;6.23;5.30;;;;;;;0.54;100.00;98689.16;5001992;28;20205;-60
2022/01/18 01:10:28;;;;;;;8.27;4.83;;;;;;;0.39;100.00;98695.19;5002750;28;20778;-57
2022/01/18 01:12:56;;;;;;;6.53;4.53;;;;;;;0.46;100.00;98691.34;4999313;28;20197;-58
2022/01/18 01:15:26;;;;;;;4.70;4.30;;;;;;;0.50;100.00;98685.03;5001964;28;20221;-59
2022/01/18 01:18:09;;;;;;;4.40;4.00;;;;;;;0.34;100.00;98692.81;4998781;28;20233;-60
2022/01/18 01:32:30;;;;;;;3.73;3.53;;;;;;;0.48;100.00;98697.31;5000660;28;20208;-54
2022/01/18 01:35:06;;;;;;;4.90;4.40;;;;;;;0.48;100.00;98705.13;5001025;28;20253;-61
2022/01/18 01:43:20;;;;;;;4.33;3.93;;;;;;;0.55;100.00;98690.00;5000066;28;20227;-61
2022/01/18 01:45:50;;;;;;;4.47;4.03;;;;;;;0.61;100.00;98696.66;5005793;28;20970;-60
2022/01/18 01:48:19;;;;;;;5.57;4.30;;;;;;;0.64;100.00;98693.88;5002992;28;20550;-58
2022/01/18 01:50:50;;;;;;;4.73;4.33;;;;;;;0.49;100.00;98690.34;5001574;28;20312;-56
2022/01/18 01:53:19;;;;;;;4.97;4.40;;;;;;;0.54;100.00;98689.16;4995909;28;20275;-57
2022/01/18 01:55:52;;;;;;;4.53;4.13;;;;;;;0.47;100.00;98692.19;5002864;28;20225;-58
2022/01/18 01:58:22;;;;;;;4.00;3.70;;;;;;;0.57;100.00;98698.59;4991555;28;20638;-56
2022/01/18 02:00:53;;;;;;;3.90;3.60;;;;;;;0.59;100.00;98704.56;4997752;28;20237;-58
2022/01/18 02:03:21;;;;;;;5.63;4.37;;;;;;;0.60;100.00;98698.41;4995089;28;20584;-58
2022/01/18 02:05:50;;;;;;;5.93;4.53;;;;;;;0.57;100.00;98698.59;4998419;28;20658;-55
2022/01/18 02:08:18;;;;;;;4.40;4.07;;;;;;;0.45;100.00;98701.88;4975551;28;20731;-62
2022/01/18 02:10:46;;;;;;;4.40;4.00;;;;;;;0.54;100.00;98694.38;4999188;28;20198;-60
2022/01/18 02:13:15;;;;;;;5.00;4.47;;;;;;;0.43;100.00;98694.09;4998993;28;20663;-57
2022/01/18 02:16:09;;;;;;;4.80;4.33;;;;;;;0.51;100.00;98698.91;5000394;28;20646;-58
2022/01/18 02:24:09;;;;;;;4.13;3.83;;;;;;;0.19;100.00;98702.34;4997960;28;20740;-58
2022/01/18 02:26:37;;;;;;;4.83;4.40;;;;;;;0.17;100.00;98691.13;4999993;28;20736;-61
2022/01/18 02:29:07;;;;;;;4.23;3.83;;;;;;;0.22;100.00;98689.13;4999817;28;20201;-58
2022/01/18 02:31:36;;;;;;;4.20;3.90;;;;;;;0.19;100.00;98688.44;5001263;28;20205;-59
2022/01/18 02:34:05;;;;;;;4.37;3.97;;;;;;;0.24;100.00;98682.06;5001502;28;20406;-59
2022/01/18 02:36:34;;;;;;;3.90;3.50;;;;;;;0.12;100.00;98680.94;4998522;28;20714;-58
2022/01/18 02:39:04;;;;;;;3.57;3.27;;;;;;;0.12;100.00;98686.16;5001239;28;20214;-56
2022/01/18 02:41:32;;;;;;;4.30;3.93;;;;;;;0.06;100.00;98691.72;4998904;28;20201;-60
2022/01/18 02:44:03;;;;;;;4.50;4.10;;;;;;;0.11;100.00;98696.66;4999126;28;20217;-61
2022/01/18 02:46:32;;;;;;;4.63;4.10;;;;;;;0.33;100.00;98698.13;4993769;28;20225;-63
2022/01/18 02:49:01;;;;;;;4.63;4.23;;;;;;;0.19;100.00;98699.72;4999007;28;20239;-60
2022/01/18 02:51:30;;;;;;;3.67;3.47;;;;;;;0.19;100.00;98691.03;5002680;28;20255;-57
2022/01/18 02:54:01;;;;;;;3.93;3.63;;;;;;;0.17;100.00;98685.91;4994675;28;20205;-60
2022/01/18 02:56:32;;;;;;;5.20;4.57;;;;;;;0.08;100.00;98696.81;4998103;28;20733;-62
2022/01/18 02:59:12;;;;;;;6.03;4.20;;;;;;;-0.04;100.00;98686.13;5002016;28;20298;-63
2022/01/18 03:04:26;;;;;;;4.90;4.50;;;;;;;-0.07;100.00;98685.44;4999834;28;20256;-62
2022/01/18 03:06:55;;;;;;;3.80;3.53;;;;;;;-0.04;100.00;98695.69;4995431;28;20208;-60
2022/01/18 03:09:24;;;;;;;3.97;3.43;;;;;;;-0.07;100.00;98686.28;4998766;28;20197;-61
2022/01/18 03:11:52;;;;;;;4.77;4.30;;;;;;;-0.16;100.00;98684.16;5001805;28;20347;-61
2022/01/18 03:14:21;;;;;;;3.50;3.30;;;;;;;-0.12;100.00;98693.50;4999275;28;20230;-60
2022/01/18 03:16:49;;;;;;;7.27;4.73;;;;;;;-0.28;100.00;98693.44;4996434;28;20241;-58
2022/01/18 03:19:17;;;;;;;4.40;4.00;;;;;;;-0.33;100.00;98700.66;4999897;28;20799;-62
2022/01/18 03:21:46;;;;;;;5.00;4.43;;;;;;;-0.28;100.00;98710.81;5002344;28;20806;-62
2022/01/18 03:24:43;;;;;;;6.00;4.23;;;;;;;0.02;100.00;98712.78;4995097;28;20582;-61
2022/01/18 03:29:58;;;;;;;4.07;3.70;;;;;;;0.04;100.00;98719.63;4994542;28;20698;-63
2022/01/18 03:32:26;;;;;;;3.90;3.60;;;;;;;0.01;100.00;98716.31;4999980;28;20264;-60
2022/01/18 03:34:54;;;;;;;4.80;4.30;;;;;;;-0.02;100.00;98723.38;4993416;28;20418;-62
2022/01/18 03:37:22;;;;;;;4.73;4.27;;;;;;;0.04;100.00;98718.75;4995105;28;20208;-63
2022/01/18 03:39:51;;;;;;;5.83;3.80;;;;;;;0.07;100.00;98723.81;4996938;28;20205;-62
2022/01/18 03:45:14;;;;;;;5.97;4.13;;;;;;;-0.10;100.00;98725.53;4987982;28;20253;-58
2022/01/18 03:47:43;;;;;;;3.73;3.40;;;;;;;-0.21;100.00;98727.81;4990180;28;20209;-61
2022/01/18 03:50:12;;;;;;;4.70;3.93;;;;;;;-0.20;100.00;98719.06;4998834;28;20622;-58
2022/01/18 03:52:41;;;;;;;3.57;3.10;;;;;;;-0.24;100.00;98723.63;4995204;28;20196;-61
2022/01/18 03:55:11;;;;;;;4.27;3.67;;;;;;;-0.10;100.00;98732.50;4994768;28;20656;-55
2022/01/18 03:57:41;;;;;;;5.32;4.00;;;;;;;-0.05;100.00;98733.09;5000205;28;20455;-59
2022/01/18 04:00:13;;;;;;;6.70;3.70;;;;;;;-0.07;100.00;98733.19;5000106;28;20279;-62
2022/01/18 04:02:41;;;;;;;5.50;3.57;;;;;;;-0.10;100.00;98730.75;4998792;28;20255;-63
2022/01/18 04:05:10;;;;;;;4.40;3.60;;;;;;;-0.15;100.00;98732.75;4997193;28;20228;-53
2022/01/18 04:07:39;;;;;;;4.67;3.50;;;;;;;-0.15;100.00;98733.56;4996092;28;20216;-60
2022/01/18 04:10:08;;;;;;;4.33;3.17;;;;;;;-0.06;100.00;98727.06;5000332;28;20625;-60
2022/01/18 04:12:37;;;;;;;5.57;4.23;;;;;;;0.02;100.00;98721.47;5001330;28;20205;-61
2022/01/18 04:15:09;;;;;;;4.97;4.27;;;;;;;-0.03;100.00;98726.91;4996104;28;20230;-60
2022/01/18 04:17:53;;;;;;;5.03;3.60;;;;;;;-0.01;100.00;98712.03;4993883;28;20650;-60
2022/01/18 04:26:01;;;;;;;4.13;2.80;;;;;;;-0.08;100.00;98722.81;5000387;28;20299;-60
2022/01/18 04:28:36;;;;;;;8.60;3.63;;;;;;;-0.05;100.00;98720.91;5002171;28;20259;-58
2022/01/18 04:31:07;;;;;;;4.87;2.87;;;;;;;0.07;100.00;98727.28;5000723;28;20235;-60
2022/01/18 04:33:36;;;;;;;5.93;3.07;;;;;;;-0.01;100.00;98735.47;5000373;28;20194;-62
2022/01/18 04:36:05;;;;;;;4.03;2.80;;;;;;;-0.06;100.00;98737.47;5001368;28;20286;-61
2022/01/18 04:38:34;;;;;;;3.97;2.80;;;;;;;-0.03;100.00;98734.72;4999370;28;20221;-62
2022/01/18 04:41:06;;;;;;;7.53;3.37;;;;;;;-0.02;100.00;98736.41;4998446;28;20742;-62
2022/01/18 04:43:47;;;;;;;3.30;2.90;;;;;;;-0.10;100.00;98738.56;4995856;28;20911;-62
2022/01/18 04:49:04;;;;;;;2.87;2.67;;;;;;;0.16;100.00;98733.75;5001270;28;20611;-60
2022/01/18 04:51:33;;;;;;;5.20;2.80;;;;;;;0.23;100.00;98731.66;4999334;28;20289;-60
2022/01/18 04:54:03;;;;;;;5.67;2.60;;;;;;;0.22;100.00;98743.03;5001965;28;20205;-61
2022/01/18 04:59:15;;;;;;;8.30;3.10;;;;;;;0.32;100.00;98741.59;5002838;28;20200;-59
2022/01/18 05:01:47;;;;;;;4.13;2.73;;;;;;;0.33;100.00;98735.47;4999246;28;20201;-58
2022/01/18 05:04:16;;;;;;;7.50;3.83;;;;;;;0.28;100.00;98740.94;4998016;28;20229;-59
2022/01/18 05:06:44;;;;;;;5.37;2.90;;;;;;;0.24;100.00;98744.63;4998557;28;20230;-62
2022/01/18 05:09:12;;;;;;;9.70;3.43;;;;;;;0.13;100.00;98744.34;5003512;28;20237;-60
2022/01/18 05:11:53;;;;;;;5.87;2.83;;;;;;;0.20;100.00;98743.13;5001578;28;20975;-60
2022/01/18 05:14:28;;;;;;;3.80;2.90;;;;;;;0.18;100.00;98744.09;4995456;28;20661;-62
2022/01/18 05:17:06;;;;;;;3.00;2.23;;;;;;;0.23;100.00;98742.09;4995890;28;20630;-59
2022/01/18 05:19:58;;;;;;;6.97;2.57;;;;;;;0.18;100.00;98746.72;4995622;28;20293;-59
2022/01/18 05:25:13;;;;;;;4.43;3.10;;;;;;;0.06;100.00;98754.25;4999146;28;20229;-61
2022/01/18 05:27:42;;;;;;;4.30;3.67;;;;;;;0.22;100.00;98764.75;4999651;28;20205;-59
2022/01/18 05:30:11;;;;;;;8.93;4.53;;;;;;;0.23;100.00;98769.03;5001686;28;20233;-58
2022/01/18 05:32:40;;;;;;;3.10;2.57;;;;;;;0.11;100.00;98772.25;4998598;28;20237;-59
2022/01/18 05:35:09;;;;;;;3.83;2.67;;;;;;;0.11;100.00;98782.66;5000929;28;20249;-59
2022/01/18 05:37:37;;;;;;;4.93;2.73;;;;;;;0.13;100.00;98794.72;4997210;28;20610;-60
2022/01/18 05:40:07;;;;;;;1.97;1.87;;;;;;;0.12;100.00;98793.03;5001114;28;20206;-60
2022/01/18 05:42:35;;;;;;;3.40;2.83;;;;;;;0.14;100.00;98790.34;5004215;28;20633;-57
2022/01/18 05:45:06;;;;;;;2.83;2.40;;;;;;;0.18;100.00;98806.66;4997224;28;20322;-55
2022/01/18 05:47:34;;;;;;;8.10;4.80;;;;;;;0.14;100.00;98811.19;4996520;28;20252;-61
2022/01/18 05:50:04;;;;;;;2.70;2.50;;;;;;;0.06;100.00;98808.13;4998617;28;20771;-60
2022/01/18 05:52:32;;;;;;;7.97;2.63;;;;;;;0.01;100.00;98816.19;4998722;28;20210;-61
2022/01/18 05:55:01;;;;;;;5.87;2.33;;;;;;;0.16;100.00;98824.16;4999724;28;20221;-59
2022/01/18 05:57:29;;;;;;;4.07;2.60;;;;;;;0.15;100.00;98828.50;5002568;28;20228;-56
2022/01/18 06:00:03;;;;;;;6.20;3.30;;;;;;;0.13;100.00;98830.34;5001822;28;20301;-61
2022/01/18 06:02:41;;;;;;;6.93;3.50;;;;;;;0.02;100.00;98827.44;5000708;28;20193;-61
2022/01/18 06:07:57;;;;;;;3.77;3.43;;;;;;;0.18;100.00;98835.34;5010579;28;20236;-56
2022/01/18 06:10:26;;;;;;;6.60;2.80;;;;;;;0.12;100.00;98839.97;5001340;28;20293;-60
2022/01/18 06:12:54;;;;;;;6.93;3.13;;;;;;;-0.10;100.00;98834.97;5002039;28;20240;-60
2022/01/18 06:15:22;;;;;;;7.87;3.23;;;;;;;-0.24;100.00;98845.19;4999287;28;20228;-60
2022/01/18 06:17:51;;;;;;;4.87;2.40;;;;;;;-0.21;100.00;98847.66;4993259;28;20209;-62
2022/01/18 06:20:20;;;;;;;3.90;2.77;;;;;;;-0.20;100.00;98851.94;5000315;28;20267;-62
2022/01/18 06:22:51;;;;;;;4.67;3.30;;;;;;;-0.08;100.00;98837.47;4994003;28;20486;-63
2022/01/18 06:25:20;;;;;;;6.07;2.87;;;;;;;-0.16;100.00;98845.69;4996114;28;20280;-61
2022/01/18 06:27:49;;;;;;;8.37;3.80;;;;;;;-0.10;100.00;98850.59;4997892;28;20209;-62
2022/01/18 06:30:18;;;;;;;6.47;3.90;;;;;;;-0.07;100.00;98855.66;4994100;28;20622;-62
2022/01/18 06:32:47;;;;;;;4.90;3.97;;;;;;;-0.04;100.00;98852.91;5001224;28;20484;-63
2022/01/18 06:35:17;;;;;;;3.13;2.83;;;;;;;-0.21;100.00;98845.06;4991385;28;20719;-58
2022/01/18 06:37:46;;;;;;;6.10;3.20;;;;;;;-0.23;100.00;98849.50;4997016;28;20281;-59
2022/01/18 06:40:16;;;;;;;6.97;4.10;;;;;;;-0.28;100.00;98841.91;4998150;28;20280;-62
2022/01/18 06:42:44;;;;;;;7.27;3.97;;;;;;;-0.18;100.00;98847.53;4996137;28;20630;-63
2022/01/18 06:45:13;;;;;;;6.33;3.30;;;;;;;-0.35;100.00;98862.22;4997164;28;20268;-62
2022/01/18 06:47:41;;;;;;;6.83;4.53;;;;;;;-0.31;100.00;98868.94;4998756;28;20293;-62
2022/01/18 06:50:11;;;;;;;4.43;3.33;;;;;;;-0.34;100.00;98866.50;4997598;28;20234;-62
2022/01/18 06:52:39;;;;;;;6.03;3.00;;;;;;;-0.41;100.00;98882.47;4999846;28;20271;-63
2022/01/18 06:55:12;;;;;;;5.50;2.87;;;;;;;-0.42;100.00;98875.59;5001029;28;20519;-61
2022/01/18 06:57:40;;;;;;;7.50;3.40;;;;;;;-0.37;100.00;98884.03;4998050;28;20215;-61
2022/01/18 07:00:09;;;;;;;5.07;2.90;;;;;;;-0.30;100.00;98878.44;4998250;28;20200;-61
2022/01/18 07:02:38;;;;;;;6.00;3.43;;;;;;;-0.36;100.00;98889.16;4999095;28;20237;-61
2022/01/18 07:05:07;;;;;;;9.50;2.77;;;;;;;-0.38;100.00;98898.81;4997452;28;20278;-63
2022/01/18 07:07:35;;;;;;;11.93;4.37;;;;;;;-0.22;100.00;98893.72;4995408;28;20202;-61
2022/01/18 07:10:04;;;;;;;3.57;2.93;;;;;;;-0.18;100.00;98897.88;4995074;28;20746;-62
2022/01/18 07:12:35;;;;;;;6.10;3.23;;;;;;;-0.10;100.00;98894.03;4990914;28;20237;-61
2022/01/18 07:15:03;;;;;;;6.17;3.30;;;;;;;-0.21;100.00;98903.22;4992739;28;20264;-62
2022/01/18 07:17:31;;;;;;;4.60;2.97;;;;;;;-0.12;100.00;98896.75;4997883;28;20746;-61
2022/01/18 07:20:00;;;;;;;8.77;2.90;;;;;;;-0.07;100.00;98905.19;4998733;28;20662;-63
2022/01/18 07:22:28;;;;;;;6.87;3.27;;;;;;;-0.07;100.00;98906.91;4995776;28;20237;-61
2022/01/18 07:24:58;;;;;;;3.40;2.40;;;;;;;0.08;100.00;98902.72;4997685;28;20260;-54
2022/01/18 07:27:26;;;;;;;6.57;3.53;;;;;;;0.19;100.00;98908.28;4993805;28;20624;-61
2022/01/18 07:29:56;;;;;;;5.00;2.70;;;;;;;0.28;100.00;98912.16;4997599;28;20494;-61
2022/01/18 07:32:24;;;;;;;5.63;2.60;;;;;;;0.26;100.00;98907.06;4992899;28;20288;-62
2022/01/18 07:34:54;;;;;;;3.37;3.07;;;;;;;0.31;100.00;98911.19;4993512;28;20256;-60
2022/01/18 07:37:23;;;;;;;5.97;3.03;;;;;;;0.18;100.00;98910.94;4994530;28;20288;-61
2022/01/18 07:39:53;;;;;;;5.80;2.67;;;;;;;0.11;100.00;98916.47;4997554;28;20242;-60
2022/01/18 07:42:24;;;;;;;5.07;3.03;;;;;;;0.18;100.00;98922.19;5000001;28;20276;-57
2022/01/18 07:44:53;;;;;;;2.70;2.43;;;;;;;0.39;100.00;98933.38;4994479;28;20272;-62
2022/01/18 07:47:22;;;;;;;8.37;3.80;;;;;;;0.57;100.00;98942.03;4991510;28;20256;-60
2022/01/18 07:49:52;;;;;;;7.20;3.20;;;;;;;0.57;100.00;98935.97;4992880;28;20236;-59
2022/01/18 07:52:20;;;;;;;3.47;2.87;;;;;;;0.67;100.00;98931.13;4997995;28;20272;-63
2022/01/18 07:54:48;;;;;;;9.40;3.80;;;;;;;0.80;100.00;98934.78;4995309;28;20662;-61
2022/01/18 07:57:16;;;;;;;4.40;2.80;;;;;;;0.78;100.00;98939.25;4997139;28;20233;-63
2022/01/18 07:59:45;;;;;;;8.83;3.30;;;;;;;0.93;100.00;98932.38;4999479;28;20224;-59
2022/01/18 08:02:13;;;;;;;7.30;2.87;;;;;;;0.93;100.00;98947.19;4993267;28;20249;-57
2022/01/18 08:04:43;;;;;;;4.87;2.93;;;;;;;1.01;100.00;98943.25;4989478;28;20232;-62
2022/01/18 08:07:11;;;;;;;5.67;2.93;;;;;;;0.92;100.00;98945.50;4997729;28;20685;-61
2022/01/18 08:09:40;;;;;;;4.20;3.57;;;;;;;1.03;100.00;98951.03;4996083;28;20232;-61
2022/01/18 08:12:09;;;;;;;7.80;3.33;;;;;;;1.00;100.00;98952.03;5000878;28;20209;-60
2022/01/18 08:14:42;;;;;;;7.23;2.90;;;;;;;1.30;100.00;98953.09;4997156;28;20319;-56
2022/01/18 08:17:11;;;;;;;2.90;2.70;;;;;;;1.26;100.00;98948.97;4993590;28;20207;-60
2022/01/18 08:19:39;;;;;;;5.67;2.50;;;;;;;1.35;100.00;98947.63;4995792;28;20296;-62
2022/01/18 08:22:10;;;;;;;12.03;5.30;;;;;;;1.35;100.00;98945.03;4997238;28;20421;-59
2022/01/18 08:24:39;;;;;;;4.63;3.13;;;;;;;1.15;100.00;98945.16;4995526;28;20218;-62
2022/01/18 08:27:07;;;;;;;6.53;2.97;;;;;;;1.28;100.00;98939.28;4997241;28;20214;-62
2022/01/18 08:29:36;;;;;;;3.83;2.90;;;;;;;1.32;100.00;98939.97;4991157;28;20202;-61
2022/01/18 08:32:15;;;;;;;5.50;3.40;;;;;;;1.38;100.00;98945.72;4988167;28;20742;-59
2022/01/18 08:34:44;;;;;;;5.10;3.03;;;;;;;1.38;100.00;98944.84;4991106;28;20209;-61
2022/01/18 08:37:13;;;;;;;5.20;3.40;;;;;;;1.40;100.00;98951.69;4994163;28;20248;-61
2022/01/18 08:39:41;;;;;;;8.10;3.13;;;;;;;1.46;100.00;98941.84;4996576;28;20332;-61
2022/01/18 08:42:10;;;;;;;5.00;3.00;;;;;;;1.67;100.00;98943.28;4992516;28;20239;-61
2022/01/18 08:44:42;;;;;;;6.33;4.33;;;;;;;1.31;100.00;98939.09;4997380;28;20217;-59
2022/01/18 08:47:11;;;;;;;8.67;4.40;;;;;;;1.27;100.00;98946.28;4996856;28;20248;-62
2022/01/18 08:49:39;;;;;;;5.20;3.80;;;;;;;1.43;100.00;98948.91;4993754;28;20209;-59
2022/01/18 08:52:08;;;;;;;12.53;4.20;;;;;;;1.60;100.00;98952.38;4991943;28;20202;-58
2022/01/18 08:54:39;;;;;;;5.17;4.10;;;;;;;1.55;100.00;98960.47;4997296;28;21202;-59
2022/01/18 08:57:07;;;;;;;6.93;4.70;;;;;;;1.67;100.00;98948.50;4996829;28;20213;-61
2022/01/18 08:59:36;;;;;;;4.73;4.10;;;;;;;1.63;100.00;98957.44;4997472;28;20212;-60
2022/01/18 09:02:04;;;;;;;8.60;4.73;;;;;;;1.84;100.00;98951.97;4997544;28;20248;-61
2022/01/18 09:04:33;;;;;;;4.67;3.53;;;;;;;1.82;100.00;98943.38;4995317;28;20683;-58
2022/01/18 09:07:06;;;;;;;7.30;3.83;;;;;;;1.89;100.00;98952.56;4992492;28;22320;-62
2022/01/18 09:09:34;;;;;;;9.40;3.30;;;;;;;1.98;100.00;98959.88;4997432;28;20225;-58
2022/01/18 09:12:05;;;;;;;7.47;4.10;;;;;;;1.95;100.00;98964.44;5003309;28;20287;-59
2022/01/18 09:14:33;;;;;;;4.50;3.47;;;;;;;2.19;100.00;98971.84;4997105;28;20312;-59
2022/01/18 09:17:01;;;;;;;5.17;3.60;;;;;;;2.35;100.00;98971.81;4999016;28;20240;-60
2022/01/18 09:19:29;;;;;;;5.30;3.63;;;;;;;2.45;100.00;98970.34;4997587;28;20233;-59
2022/01/18 09:21:59;;;;;;;7.70;3.50;;;;;;;2.73;100.00;98979.22;5000330;28;20217;-59
2022/01/18 09:24:27;;;;;;;4.80;4.13;;;;;;;2.63;100.00;98970.22;5001780;28;20296;-60
2022/01/18 09:26:56;;;;;;;5.60;3.27;;;;;;;2.79;100.00;98968.38;5000089;28;20324;-61
2022/01/18 09:29:26;;;;;;;5.50;3.47;;;;;;;2.94;100.00;98974.47;4998199;28;20304;-60
2022/01/18 09:31:54;;;;;;;7.67;3.83;;;;;;;3.08;100.00;98970.22;4999104;28;20652;-59
2022/01/18 09:34:22;;;;;;;7.07;3.40;;;;;;;3.15;100.00;98967.13;5000800;28;20292;-56
2022/01/18 09:36:50;;;;;;;10.37;3.77;;;;;;;3.22;100.00;98974.59;4998979;28;20311;-58
2022/01/18 09:39:19;;;;;;;8.97;4.70;;;;;;;3.11;100.00;98991.81;4994974;28;20228;-60
2022/01/18 09:41:51;;;;;;;12.87;3.73;;;;;;;3.33;100.00;98993.16;5002121;28;20297;-60
2022/01/18 09:44:19;;;;;;;7.07;3.60;;;;;;;3.51;100.00;98990.31;4998273;28;20285;-58
2022/01/18 09:46:51;;;;;;;8.10;3.57;;;;;;;3.69;100.00;98993.59;4997878;28;20226;-59
2022/01/18 09:49:20;;;;;;;10.77;3.90;;;;;;;3.59;100.00;98980.19;5000856;28;20292;-58
2022/01/18 10:05:21;;;;;;;6.72;3.92;;;;;;;3.80;100.00;98979.81;5048985;28;20466;-61
2022/01/18 10:08:01;;;;;;;7.03;3.90;;;;;;;3.81;100.00;98982.34;5042814;28;20448;-61
2022/01/18 10:10:40;;;;;;;8.30;3.37;;;;;;;3.70;100.00;98975.16;5036512;28;20642;-61
2022/01/18 10:13:09;;;;;;;8.07;4.50;;;;;;;3.49;100.00;98979.94;5036713;28;20274;-58
2022/01/18 10:15:37;;;;;;;6.53;4.10;;;;;;;2.96;100.00;98983.09;5040028;28;20227;-62
2022/01/18 10:18:08;;;;;;;6.13;3.60;;;;;;;3.30;100.00;98981.06;5039265;28;20203;-62
2022/01/18 10:20:52;;;;;;;9.30;4.27;;;;;;;3.80;100.00;98978.03;5041072;28;20215;-62
2022/01/18 10:23:24;;;;;;;8.97;4.03;;;;;;;4.13;100.00;98973.34;5034860;28;20223;-62
2022/01/18 10:25:53;;;;;;;5.33;3.60;;;;;;;3.93;100.00;98969.38;5042110;28;20251;-60
2022/01/18 10:28:29;;;;;;;9.57;4.03;;;;;;;4.14;100.00;98968.00;5042959;28;20261;-62
2022/01/18 10:31:00;;;;;;;6.47;3.63;;;;;;;3.97;100.00;98949.88;5042628;28;20207;-64
2022/01/18 10:33:35;;;;;;;5.93;3.70;;;;;;;3.90;100.00;98962.53;5040835;28;20215;-63
2022/01/18 10:36:10;;;;;;;6.53;3.40;;;;;;;3.72;100.00;98960.16;5039628;28;20309;-61
2022/01/18 10:38:38;;;;;;;7.93;3.33;;;;;;;3.64;100.00;98956.34;5041373;28;20237;-62
2022/01/18 10:41:24;;;;;;;7.43;3.40;;;;;;;3.07;100.00;98948.41;5042141;28;20203;-62
2022/01/18 10:44:07;;;;;;;6.37;2.97;;;;;;;3.11;100.00;98949.91;5042232;28;20251;-64
2022/01/18 10:46:37;;;;;;;7.70;3.27;;;;;;;3.26;100.00;98952.53;5038502;28;20209;-62
2022/01/18 10:49:06;;;;;;;6.50;3.00;;;;;;;3.67;100.00;98950.91;5043037;28;20726;-63
2022/01/18 10:51:38;;;;;;;9.13;3.50;;;;;;;4.61;100.00;98949.25;5039936;28;20207;-60
2022/01/18 10:54:07;;;;;;;6.73;4.13;;;;;;;5.10;100.00;98952.94;5042181;28;20204;-63
2022/01/18 10:56:40;;;;;;;7.43;3.07;;;;;;;5.29;100.00;98949.06;5043031;28;20203;-63
2022/01/18 10:59:09;;;;;;;8.60;3.17;;;;;;;5.39;100.00;98944.00;5042919;28;20208;-62
2022/01/18 11:01:37;;;;;;;8.03;2.97;;;;;;;5.05;100.00;98947.16;5039522;28;20197;-62
2022/01/18 11:04:13;;;;;;;7.43;3.63;;;;;;;5.02;100.00;98942.13;5044020;28;20246;-62
2022/01/18 11:06:56;;;;;;;8.50;3.97;;;;;;;5.19;100.00;98949.72;5031259;28;20212;-62
2022/01/18 11:09:24;;;;;;;6.50;3.80;;;;;;;5.10;100.00;98942.44;5030862;28;20200;-58
2022/01/18 11:11:53;;;;;;;7.23;3.37;;;;;;;5.38;100.00;98943.16;5029216;28;20212;-62
2022/01/18 11:14:23;;;;;;;3.70;2.17;;;;;;;5.14;100.00;98938.69;5022492;28;20201;-62
2022/01/18 11:16:55;;;;;;;6.73;3.43;;;;;;;5.22;100.00;98936.34;5028336;28;20200;-56
2022/01/18 11:19:33;;;;;;;3.27;2.87;;;;;;;4.93;100.00;98936.56;5026605;28;20653;-62
2022/01/18 11:22:08;;;;;;;6.67;3.77;;;;;;;4.42;100.00;98933.88;5022560;28;20197;-60
2022/01/18 11:24:38;;;;;;;4.63;3.50;;;;;;;4.33;100.00;98930.06;5026315;28;20220;-62
2022/01/18 11:27:11;;;;;;;6.27;3.50;;;;;;;4.19;100.00;98937.09;5020757;28;20212;-60
2022/01/18 11:29:39;;;;;;;5.90;3.93;;;;;;;4.20;100.00;98935.28;5029811;28;20235;-61
2022/01/18 11:32:08;;;;;;;3.53;3.17;;;;;;;4.34;100.00;98927.34;5024825;28;20847;-62
2022/01/18 11:34:50;;;;;;;5.40;3.40;;;;;;;4.43;100.00;98930.31;5028252;28;20673;-61
2022/01/18 11:37:27;;;;;;;9.87;5.20;;;;;;;4.59;100.00;98927.50;5028623;28;20205;-58
2022/01/18 11:40:01;;;;;;;3.30;2.87;;;;;;;4.92;100.00;98927.00;5022258;28;20220;-62
2022/01/18 11:42:41;;;;;;;6.10;3.20;;;;;;;4.84;100.00;98920.59;5027321;28;20201;-61
2022/01/18 11:45:39;;;;;;;5.50;3.03;;;;;;;4.41;100.00;98925.16;5026236;28;20232;-61
2022/01/18 11:48:16;;;;;;;7.43;4.03;;;;;;;4.13;100.00;98926.97;5026397;28;20737;-58
2022/01/18 11:50:48;;;;;;;6.17;3.37;;;;;;;4.40;100.00;98920.84;5029864;28;20600;-55
2022/01/18 11:53:41;;;;;;;7.50;4.70;;;;;;;4.16;100.00;98913.66;5024140;28;20208;-61
2022/01/18 11:56:13;;;;;;;6.40;3.67;;;;;;;4.14;100.00;98917.31;5024610;28;20282;-61
2022/01/18 11:58:42;;;;;;;6.47;3.80;;;;;;;4.14;100.00;98919.94;5028049;28;20211;-58
2022/01/18 12:01:12;;;;;;;7.00;4.00;;;;;;;4.26;100.00;98921.75;5028665;28;20216;-62
2022/01/18 12:03:45;;;;;;;5.70;4.70;;;;;;;4.41;100.00;98912.03;5028512;28;20298;-62
2022/01/18 12:06:13;;;;;;;8.57;3.87;;;;;;;4.75;100.00;98908.94;5030620;28;20228;-63
2022/01/18 12:08:44;;;;;;;9.20;4.23;;;;;;;4.61;100.00;98917.75;5030244;28;20226;-62
2022/01/18 12:11:36;;;;;;;7.60;5.00;;;;;;;4.88;100.00;98909.78;5026123;28;20202;-64
2022/01/18 12:14:05;;;;;;;9.93;4.87;;;;;;;5.13;100.00;98904.59;5020807;28;20263;-59
2022/01/18 12:16:33;;;;;;;14.53;4.70;;;;;;;5.13;100.00;98897.59;5026853;28;20208;-63
2022/01/18 12:19:06;;;;;;;7.47;4.33;;;;;;;5.16;100.00;98899.13;5027019;28;20232;-63
2022/01/18 12:21:35;;;;;;;12.73;5.20;;;;;;;5.20;100.00;98897.97;5019617;28;20715;-64
2022/01/18 12:24:17;;;;;;;7.10;4.47;;;;;;;5.27;100.00;98893.97;5021937;28;20261;-62
2022/01/18 12:26:48;;;;;;;4.50;4.07;;;;;;;5.04;100.00;98898.19;5021543;28;20204;-63
2022/01/18 12:34:59;;;;;;;4.93;3.83;;;;;;;4.73;100.00;98889.78;5026802;28;20224;-62
2022/01/18 12:37:44;;;;;;;7.60;4.90;;;;;;;4.73;100.00;98898.53;5027450;28;20290;-62
2022/01/18 12:40:29;;;;;;;6.40;4.47;;;;;;;4.58;100.00;98891.69;5027432;28;20629;-63
2022/01/18 12:45:55;;;;;;;4.93;4.40;;;;;;;4.26;100.00;98885.03;5026221;28;20656;-62
2022/01/18 12:48:23;;;;;;;8.50;4.57;;;;;;;4.10;100.00;98879.13;5008899;28;20852;-61
2022/01/18 12:50:55;;;;;;;7.67;4.70;;;;;;;4.13;100.00;98878.91;5006018;28;20629;-62
2022/01/18 12:53:26;;;;;;;5.20;4.77;;;;;;;4.12;100.00;98883.31;5006100;28;20910;-62
2022/01/18 12:56:01;;;;;;;5.03;4.07;;;;;;;4.00;100.00;98898.09;5000367;28;20337;-63
2022/01/18 12:58:32;;;;;;;5.53;4.53;;;;;;;4.22;100.00;98883.53;4997381;28;20249;-62
2022/01/18 13:01:01;;;;;;;8.03;4.73;;;;;;;4.18;100.00;98889.94;5004052;28;20205;-58